createdAt,value
2023-03-21T00:00:29.932Z,10.76
2023-03-21T00:01:29.939Z,10.75
2023-03-21T00:02:30.369Z,10.76
2023-03-21T00:03:30.037Z,10.78
2023-03-21T00:04:35.380Z,10.8
2023-03-21T00:05:30.002Z,10.8
2023-03-21T00:06:29.947Z,10.79
2023-03-21T00:07:34.809Z,10.78
2023-03-21T00:08:29.929Z,10.78
2023-03-21T00:09:30.309Z,10.77
2023-03-21T00:11:29.930Z,10.68
2023-03-21T00:13:46.387Z,10.67
2023-03-21T00:14:45.981Z,10.67
2023-03-21T00:15:57.743Z,10.66
2023-03-21T00:16:46.376Z,10.66
2023-03-21T00:17:46.368Z,10.66
2023-03-21T00:18:48.334Z,10.68
2023-03-21T00:19:45.973Z,10.72
2023-03-21T00:20:46.149Z,10.74
2023-03-21T00:22:03.660Z,10.75
2023-03-21T00:22:46.326Z,10.74
2023-03-21T00:23:45.968Z,10.71
2023-03-21T00:24:46.358Z,10.68
2023-03-21T00:25:45.951Z,10.67
2023-03-21T00:26:46.266Z,10.67
2023-03-21T00:28:01.444Z,10.7
2023-03-21T00:28:46.092Z,10.71
2023-03-21T00:29:48.353Z,10.69
2023-03-21T00:30:45.960Z,10.7
2023-03-21T00:31:45.951Z,10.73
2023-03-21T00:32:55.328Z,10.73
2023-03-21T00:33:45.970Z,10.73
2023-03-21T00:34:59.616Z,10.73
2023-03-21T00:36:02.213Z,10.7
2023-03-21T00:36:45.978Z,10.68
2023-03-21T00:37:46.335Z,10.68
2023-03-21T00:38:46.019Z,10.7
2023-03-21T00:39:46.407Z,10.69
2023-03-21T00:40:49.182Z,10.67
2023-03-21T00:41:46.141Z,10.66
2023-03-21T00:42:46.359Z,10.65
2023-03-21T00:43:45.958Z,10.63
2023-03-21T00:44:45.958Z,10.6
2023-03-21T00:45:45.962Z,10.57
2023-03-21T00:47:00.549Z,10.54
2023-03-21T00:47:46.518Z,10.5
2023-03-21T00:48:45.957Z,10.42
2023-03-21T00:49:45.966Z,10.32
2023-03-21T00:50:45.939Z,10.25
2023-03-21T00:51:48.308Z,10.15
2023-03-21T00:52:46.649Z,10.08
2023-03-21T00:53:45.938Z,9.98
2023-03-21T00:54:46.373Z,9.92
2023-03-21T00:55:45.977Z,9.87
2023-03-21T00:56:45.951Z,9.83
2023-03-21T00:57:50.200Z,9.8
2023-03-21T00:58:45.959Z,9.77
2023-03-21T00:59:45.960Z,9.75
2023-03-21T01:00:45.982Z,9.75
2023-03-21T01:01:46.014Z,9.74
2023-03-21T01:02:54.792Z,9.76
2023-03-21T01:03:45.980Z,9.77
2023-03-21T01:04:45.961Z,9.72
2023-03-21T01:05:46.052Z,9.69
2023-03-21T01:06:45.977Z,9.65
2023-03-21T01:07:46.374Z,9.6
2023-03-21T01:08:52.697Z,9.55
2023-03-21T01:09:46.398Z,9.51
2023-03-21T01:10:45.973Z,9.47
2023-03-21T01:11:45.959Z,9.43
2023-03-21T01:12:46.378Z,9.37
2023-03-21T01:13:54.764Z,9.33
2023-03-21T01:14:45.960Z,9.3
2023-03-21T01:15:45.953Z,9.27
2023-03-21T01:16:45.952Z,9.24
2023-03-21T01:17:46.376Z,9.23
2023-03-21T01:18:45.935Z,9.21
2023-03-21T01:19:51.983Z,9.21
2023-03-21T01:20:46.070Z,9.21
2023-03-21T01:21:45.949Z,9.22
2023-03-21T01:22:46.383Z,9.22
2023-03-21T01:23:45.970Z,9.23
2023-03-21T01:24:55.430Z,9.22
2023-03-21T01:25:45.940Z,9.22
2023-03-21T01:26:45.948Z,9.22
2023-03-21T01:27:46.367Z,9.23
2023-03-21T01:28:45.982Z,9.23
2023-03-21T01:29:45.977Z,9.25
2023-03-21T01:30:45.965Z,9.28
2023-03-21T01:31:46.068Z,9.31
2023-03-21T01:32:46.349Z,9.34
2023-03-21T01:33:46.089Z,9.36
2023-03-21T01:34:45.953Z,9.39
2023-03-21T01:35:53.385Z,9.41
2023-03-21T01:36:46.128Z,9.39
2023-03-21T01:37:46.365Z,9.39
2023-03-21T01:38:45.944Z,9.37
2023-03-21T01:39:46.377Z,9.35
2023-03-21T01:40:45.953Z,9.33
2023-03-21T01:41:45.960Z,9.29
2023-03-21T01:42:46.382Z,9.25
2023-03-21T01:43:46.057Z,9.21
2023-03-21T01:44:45.996Z,9.15
2023-03-21T01:45:45.966Z,9.08
2023-03-21T01:46:57.430Z,9.04
2023-03-21T01:47:46.419Z,9
2023-03-21T01:48:46.046Z,8.98
2023-03-21T01:49:46.539Z,8.97
2023-03-21T01:50:45.953Z,8.93
2023-03-21T01:51:46.071Z,8.9
2023-03-21T01:52:46.377Z,8.89
2023-03-21T01:53:45.961Z,8.88
2023-03-21T01:54:46.389Z,8.85
2023-03-21T01:55:45.928Z,8.84
2023-03-21T01:56:46.027Z,8.86
2023-03-21T01:58:04.229Z,8.89
2023-03-21T01:58:46.063Z,8.91
2023-03-21T01:59:45.948Z,8.94
2023-03-21T02:00:45.960Z,8.96
2023-03-21T02:01:45.954Z,8.97
2023-03-21T02:02:46.366Z,9
2023-03-21T02:03:45.946Z,9.01
2023-03-21T02:04:46.098Z,9.02
2023-03-21T02:05:45.985Z,9.04
2023-03-21T02:06:45.958Z,9.07
2023-03-21T02:07:46.372Z,9.08
2023-03-21T02:08:48.292Z,9.08
2023-03-21T02:09:46.367Z,9.09
2023-03-21T02:10:45.945Z,9.1
2023-03-21T02:11:45.947Z,9.12
2023-03-21T02:12:46.372Z,9.14
2023-03-21T02:13:45.962Z,9.14
2023-03-21T02:14:45.973Z,9.14
2023-03-21T02:15:45.966Z,9.13
2023-03-21T02:16:46.019Z,9.12
2023-03-21T02:17:46.381Z,9.11
2023-03-21T02:18:46.085Z,9.09
2023-03-21T02:19:53.418Z,9.05
2023-03-21T02:20:45.958Z,9.04
2023-03-21T02:21:45.952Z,9.01
2023-03-21T02:22:46.374Z,8.96
2023-03-21T02:23:45.966Z,8.91
2023-03-21T02:24:54.420Z,8.88
2023-03-21T02:25:45.951Z,8.88
2023-03-21T02:26:48.218Z,8.84
2023-03-21T02:27:46.354Z,8.8
2023-03-21T02:28:45.975Z,8.74
2023-03-21T02:29:45.913Z,8.69
2023-03-21T02:30:51.988Z,8.66
2023-03-21T02:31:45.979Z,8.64
2023-03-21T02:32:46.355Z,8.61
2023-03-21T02:33:45.939Z,8.56
2023-03-21T02:34:45.968Z,8.56
2023-03-21T02:35:53.713Z,8.55
2023-03-21T02:36:46.012Z,8.51
2023-03-21T02:37:52.054Z,8.47
2023-03-21T02:38:45.961Z,8.45
2023-03-21T02:39:46.338Z,8.4
2023-03-21T02:40:45.962Z,8.36
2023-03-21T02:41:48.319Z,8.34
2023-03-21T02:42:51.706Z,8.32
2023-03-21T02:43:45.977Z,8.33
2023-03-21T02:44:45.962Z,8.32
2023-03-21T02:45:45.960Z,8.29
2023-03-21T02:46:51.249Z,8.26
2023-03-21T02:47:46.451Z,8.23
2023-03-21T02:48:50.894Z,8.22
2023-03-21T02:49:45.944Z,8.22
2023-03-21T02:50:45.952Z,8.22
2023-03-21T02:51:45.952Z,8.2
2023-03-21T02:52:50.826Z,8.17
2023-03-21T02:53:45.959Z,8.15
2023-03-21T02:54:48.602Z,8.15
2023-03-21T02:55:45.960Z,8.15
2023-03-21T02:56:46.088Z,8.15
2023-03-21T02:57:46.723Z,8.13
2023-03-21T02:58:46.052Z,8.13
2023-03-21T02:59:54.325Z,8.12
2023-03-21T03:00:45.953Z,8.1
2023-03-21T03:01:46.092Z,8.09
2023-03-21T03:02:47.525Z,8.08
2023-03-21T03:03:48.318Z,8.1
2023-03-21T03:04:46.104Z,8.11
2023-03-21T03:05:45.963Z,8.12
2023-03-21T03:06:45.935Z,8.15
2023-03-21T03:07:46.381Z,8.16
2023-03-21T03:08:59.753Z,8.19
2023-03-21T03:09:46.360Z,8.22
2023-03-21T03:10:45.952Z,8.24
2023-03-21T03:11:45.955Z,8.27
2023-03-21T03:12:46.361Z,8.3
2023-03-21T03:13:46.038Z,8.33
2023-03-21T03:15:02.182Z,8.37
2023-03-21T03:15:46.154Z,8.39
2023-03-21T03:16:45.964Z,8.41
2023-03-21T03:17:46.442Z,8.45
2023-03-21T03:18:46.071Z,8.48
2023-03-21T03:19:50.642Z,8.47
2023-03-21T03:20:45.971Z,8.5
2023-03-21T03:21:45.947Z,8.5
2023-03-21T03:22:46.447Z,8.47
2023-03-21T03:23:45.949Z,8.48
2023-03-21T03:24:46.358Z,8.48
2023-03-21T03:25:48.396Z,8.46
2023-03-21T03:26:46.037Z,8.45
2023-03-21T03:27:46.374Z,8.42
2023-03-21T03:28:46.039Z,8.38
2023-03-21T03:29:45.960Z,8.35
2023-03-21T03:30:57.472Z,8.3
2023-03-21T03:31:46.242Z,8.25
2023-03-21T03:32:46.352Z,8.19
2023-03-21T03:33:45.960Z,8.18
2023-03-21T03:34:45.972Z,8.16
2023-03-21T03:35:50.323Z,8.13
2023-03-21T03:36:48.347Z,8.1
2023-03-21T03:37:46.384Z,8.04
2023-03-21T03:38:45.947Z,8.01
2023-03-21T03:39:46.357Z,7.98
2023-03-21T03:40:46.071Z,7.97
2023-03-21T03:42:06.103Z,7.95
2023-03-21T03:42:46.351Z,7.96
2023-03-21T03:43:45.976Z,7.93
2023-03-21T03:44:46.078Z,7.91
2023-03-21T03:45:45.949Z,7.91
2023-03-21T03:46:46.016Z,7.9
2023-03-21T03:47:56.673Z,7.89
2023-03-21T03:48:46.094Z,7.87
2023-03-21T03:49:45.955Z,7.87
2023-03-21T03:50:45.961Z,7.86
2023-03-21T03:51:46.080Z,7.86
2023-03-21T03:52:55.581Z,7.83
2023-03-21T03:53:45.949Z,7.82
2023-03-21T03:54:46.395Z,7.81
2023-03-21T03:55:46.101Z,7.84
2023-03-21T03:56:46.032Z,7.88
2023-03-21T03:57:46.370Z,7.86
2023-03-21T03:58:48.333Z,7.87
2023-03-21T03:59:45.963Z,7.85
2023-03-21T04:00:45.960Z,7.85
2023-03-21T04:01:46.003Z,7.85
2023-03-21T04:02:46.458Z,7.86
2023-03-21T04:03:50.628Z,7.9
2023-03-21T04:04:46.113Z,7.93
2023-03-21T04:05:45.942Z,7.95
2023-03-21T04:06:45.965Z,7.96
2023-03-21T04:07:46.395Z,7.96
2023-03-21T04:08:45.974Z,7.96
2023-03-21T04:09:50.833Z,7.96
2023-03-21T04:10:45.978Z,7.95
2023-03-21T04:11:46.097Z,7.98
2023-03-21T04:12:46.359Z,7.99
2023-03-21T04:13:46.079Z,8.03
2023-03-21T04:14:47.405Z,8.04
2023-03-21T04:15:46.094Z,8.06
2023-03-21T04:16:45.990Z,8.09
2023-03-21T04:17:46.372Z,8.16
2023-03-21T04:18:45.961Z,8.22
2023-03-21T04:19:45.964Z,8.28
2023-03-21T04:20:48.995Z,8.32
2023-03-21T04:21:45.953Z,8.34
2023-03-21T04:22:46.494Z,8.38
2023-03-21T04:23:45.989Z,8.38
2023-03-21T04:24:46.380Z,8.4
2023-03-21T04:25:55.792Z,8.41
2023-03-21T04:26:46.122Z,8.4
2023-03-21T04:27:46.356Z,8.36
2023-03-21T04:28:46.058Z,8.33
2023-03-21T04:29:46.100Z,8.32
2023-03-21T04:31:00.389Z,8.3
2023-03-21T04:31:48.502Z,8.3
2023-03-21T04:32:46.372Z,8.3
2023-03-21T04:33:46.094Z,8.29
2023-03-21T04:34:45.947Z,8.28
2023-03-21T04:35:46.090Z,8.28
2023-03-21T04:36:45.959Z,8.26
2023-03-21T04:37:46.391Z,8.23
2023-03-21T04:38:45.994Z,8.22
2023-03-21T04:39:46.368Z,8.17
2023-03-21T04:40:45.972Z,8.15
2023-03-21T04:41:45.999Z,8.15
2023-03-21T04:42:50.822Z,8.12
2023-03-21T04:43:45.971Z,8.1
2023-03-21T04:44:45.937Z,8.11
2023-03-21T04:45:46.013Z,8.1
2023-03-21T04:46:46.114Z,8.09
2023-03-21T04:47:46.406Z,8.1
2023-03-21T04:48:46.034Z,8.12
2023-03-21T04:49:45.947Z,8.17
2023-03-21T04:50:45.963Z,8.23
2023-03-21T04:51:45.953Z,8.29
2023-03-21T04:52:46.367Z,8.34
2023-03-21T04:53:48.263Z,8.38
2023-03-21T04:54:46.365Z,8.44
2023-03-21T04:55:45.990Z,8.49
2023-03-21T04:56:45.953Z,8.53
2023-03-21T04:57:46.356Z,8.56
2023-03-21T04:58:45.957Z,8.61
2023-03-21T04:59:45.978Z,8.64
2023-03-21T05:00:45.995Z,8.66
2023-03-21T05:01:46.010Z,8.67
2023-03-21T05:02:46.367Z,8.7
2023-03-21T05:03:46.073Z,8.72
2023-03-21T05:04:48.395Z,8.73
2023-03-21T05:05:45.960Z,8.73
2023-03-21T05:06:45.948Z,8.69
2023-03-21T05:07:46.343Z,8.66
2023-03-21T05:08:46.090Z,8.63
2023-03-21T05:09:46.380Z,8.58
2023-03-21T05:10:46.055Z,8.51
2023-03-21T05:11:45.974Z,8.46
2023-03-21T05:12:46.364Z,8.41
2023-03-21T05:13:45.965Z,8.38
2023-03-21T05:14:45.952Z,8.36
2023-03-21T05:15:48.285Z,8.36
2023-03-21T05:16:45.961Z,8.36
2023-03-21T05:17:46.382Z,8.38
2023-03-21T05:18:46.093Z,8.37
2023-03-21T05:19:45.973Z,8.39
2023-03-21T05:20:45.952Z,8.4
2023-03-21T05:21:46.092Z,8.41
2023-03-21T05:22:46.365Z,8.41
2023-03-21T05:23:45.978Z,8.43
2023-03-21T05:24:46.358Z,8.41
2023-03-21T05:25:45.963Z,8.39
2023-03-21T05:26:48.356Z,8.4
2023-03-21T05:27:46.384Z,8.43
2023-03-21T05:28:46.080Z,8.47
2023-03-21T05:29:45.968Z,8.5
2023-03-21T05:30:46.035Z,8.5
2023-03-21T05:31:45.965Z,8.52
2023-03-21T05:32:46.340Z,8.53
2023-03-21T05:33:46.093Z,8.55
2023-03-21T05:34:45.965Z,8.56
2023-03-21T05:35:46.084Z,8.55
2023-03-21T05:36:45.962Z,8.56
2023-03-21T05:37:50.795Z,8.57
2023-03-21T05:38:45.965Z,8.59
2023-03-21T05:39:46.370Z,8.61
2023-03-21T05:40:45.950Z,8.61
2023-03-21T05:41:45.945Z,8.63
2023-03-21T05:42:46.568Z,8.66
2023-03-21T05:43:45.937Z,8.71
2023-03-21T05:44:45.980Z,8.8
2023-03-21T05:45:45.981Z,8.85
2023-03-21T05:46:45.978Z,8.89
2023-03-21T05:47:46.389Z,8.95
2023-03-21T05:48:48.280Z,9
2023-03-21T05:49:45.959Z,9.08
2023-03-21T05:50:45.955Z,9.14
2023-03-21T05:51:45.961Z,9.23
2023-03-21T05:52:47.537Z,9.33
2023-03-21T05:53:46.104Z,9.38
2023-03-21T05:54:46.365Z,9.46
2023-03-21T05:55:45.949Z,9.54
2023-03-21T05:56:46.090Z,9.61
2023-03-21T05:57:46.349Z,9.67
2023-03-21T05:58:45.952Z,9.72
2023-03-21T05:59:48.279Z,9.75
2023-03-21T06:00:45.977Z,9.77
2023-03-21T06:01:45.973Z,9.77
2023-03-21T06:02:46.406Z,9.8
2023-03-21T06:03:46.187Z,9.83
2023-03-21T06:04:46.057Z,9.88
2023-03-21T06:05:45.970Z,9.91
2023-03-21T06:06:45.955Z,9.94
2023-03-21T06:07:54.826Z,9.99
2023-03-21T06:08:45.945Z,10.02
2023-03-21T06:09:46.367Z,10.05
2023-03-21T06:10:48.321Z,10.08
2023-03-21T06:11:46.344Z,10.09
2023-03-21T06:12:46.339Z,10.11
2023-03-21T06:13:45.942Z,10.11
2023-03-21T06:14:45.978Z,10.07
2023-03-21T06:15:46.007Z,9.97
2023-03-21T06:16:46.105Z,9.9
2023-03-21T06:17:46.382Z,9.86
2023-03-21T06:18:45.945Z,9.81
2023-03-21T06:19:45.953Z,9.76
2023-03-21T06:20:46.087Z,9.72
2023-03-21T06:21:48.317Z,9.68
2023-03-21T06:22:46.342Z,9.61
2023-03-21T06:23:45.964Z,9.59
2023-03-21T06:24:46.372Z,9.58
2023-03-21T06:25:45.948Z,9.58
2023-03-21T06:26:45.966Z,9.64
2023-03-21T06:27:46.365Z,10.19
2023-03-21T06:28:45.979Z,10.62
2023-03-21T06:29:45.964Z,10.77
2023-03-21T06:30:45.935Z,10.77
2023-03-21T06:31:46.030Z,10.72
2023-03-21T06:32:50.748Z,10.66
2023-03-21T06:33:45.914Z,10.6
2023-03-21T06:34:45.948Z,10.53
2023-03-21T06:35:45.990Z,10.46
2023-03-21T06:36:45.958Z,10.43
2023-03-21T06:37:46.382Z,10.52
2023-03-21T06:38:45.960Z,10.67
2023-03-21T06:39:46.376Z,10.86
2023-03-21T06:40:45.950Z,11.02
2023-03-21T06:41:45.952Z,11.14
2023-03-21T06:42:46.354Z,11.34
2023-03-21T06:43:48.371Z,11.87
2023-03-21T06:44:46.045Z,12.57
2023-03-21T06:45:45.955Z,13.15
2023-03-21T06:46:45.971Z,13.4
2023-03-21T06:47:46.438Z,13.37
2023-03-21T06:48:45.979Z,13.17
2023-03-21T06:49:45.964Z,12.92
2023-03-21T06:50:45.967Z,12.65
2023-03-21T06:51:45.947Z,12.4
2023-03-21T06:52:46.409Z,12.12
2023-03-21T06:53:45.961Z,11.92
2023-03-21T06:54:50.791Z,11.77
2023-03-21T06:55:45.954Z,11.62
2023-03-21T06:56:45.947Z,11.51
2023-03-21T06:57:46.364Z,11.44
2023-03-21T06:58:45.987Z,11.37
2023-03-21T06:59:45.981Z,11.33
2023-03-21T07:00:46.020Z,11.28
2023-03-21T07:01:45.957Z,11.28
2023-03-21T07:02:46.393Z,11.28
2023-03-21T07:03:45.962Z,11.25
2023-03-21T07:04:45.955Z,11.25
2023-03-21T07:05:48.296Z,11.27
2023-03-21T07:06:45.957Z,11.35
2023-03-21T07:07:46.364Z,11.38
2023-03-21T07:08:45.958Z,11.44
2023-03-21T07:09:46.359Z,11.48
2023-03-21T07:10:46.091Z,11.51
2023-03-21T07:11:45.932Z,11.59
2023-03-21T07:12:46.361Z,11.67
2023-03-21T07:13:45.966Z,11.78
2023-03-21T07:14:45.985Z,11.9
2023-03-21T07:15:45.942Z,12.07
2023-03-21T07:16:48.466Z,12.17
2023-03-21T07:17:46.365Z,12.42
2023-03-21T07:18:45.939Z,12.69
2023-03-21T07:19:46.068Z,12.91
2023-03-21T07:20:45.960Z,13.13
2023-03-21T07:21:45.967Z,13.25
2023-03-21T07:22:46.360Z,13.29
2023-03-21T07:23:45.943Z,13.33
2023-03-21T07:24:50.952Z,13.4
2023-03-21T07:25:46.074Z,13.42
2023-03-21T07:26:45.944Z,13.43
2023-03-21T07:27:50.783Z,13.38
2023-03-21T07:28:45.962Z,13.25
2023-03-21T07:29:46.090Z,13.13
2023-03-21T07:30:46.119Z,13.03
2023-03-21T07:31:45.965Z,12.99
2023-03-21T07:32:46.350Z,13.05
2023-03-21T07:33:45.978Z,13.2
2023-03-21T07:34:45.968Z,13.38
2023-03-21T07:35:46.015Z,13.66
2023-03-21T07:36:45.964Z,13.9
2023-03-21T07:37:46.378Z,14.07
2023-03-21T07:38:48.349Z,14.17
2023-03-21T07:39:46.372Z,14.16
2023-03-21T07:40:46.092Z,14.09
2023-03-21T07:41:45.968Z,14.09
2023-03-21T07:42:46.361Z,14.13
2023-03-21T07:43:45.995Z,14.1
2023-03-21T07:44:46.001Z,13.98
2023-03-21T07:45:45.975Z,13.99
2023-03-21T07:46:45.970Z,14.04
2023-03-21T07:47:46.371Z,14.11
2023-03-21T07:48:45.979Z,14.2
2023-03-21T07:49:48.291Z,14.23
2023-03-21T07:50:46.025Z,14.21
2023-03-21T07:51:45.936Z,14.28
2023-03-21T07:52:46.377Z,14.37
2023-03-21T07:53:46.108Z,14.46
2023-03-21T07:54:46.370Z,14.57
2023-03-21T07:55:45.969Z,14.6
2023-03-21T07:56:46.076Z,14.64
2023-03-21T07:57:46.346Z,14.71
2023-03-21T07:58:45.935Z,14.69
2023-03-21T07:59:45.951Z,14.55
2023-03-21T08:00:48.317Z,14.55
2023-03-21T08:01:45.978Z,14.66
2023-03-21T08:02:46.349Z,14.86
2023-03-21T08:03:46.013Z,15.04
2023-03-21T08:04:45.956Z,15.11
2023-03-21T08:05:45.972Z,15.16
2023-03-21T08:06:45.968Z,15.34
2023-03-21T08:07:46.365Z,15.5
2023-03-21T08:08:45.962Z,15.63
2023-03-21T08:09:46.353Z,15.75
2023-03-21T08:10:45.959Z,15.95
2023-03-21T08:11:48.313Z,16.12
2023-03-21T08:12:46.353Z,16.32
2023-03-21T08:13:45.939Z,16.37
2023-03-21T08:14:45.965Z,16.24
2023-03-21T08:15:45.945Z,16.23
2023-03-21T08:16:46.018Z,16.18
2023-03-21T08:17:46.392Z,16.19
2023-03-21T08:18:45.972Z,16.27
2023-03-21T08:19:45.964Z,16.42
2023-03-21T08:20:45.970Z,16.48
2023-03-21T08:21:45.980Z,16.52
2023-03-21T08:22:48.742Z,16.6
2023-03-21T08:23:46.064Z,16.56
2023-03-21T08:24:46.349Z,16.63
2023-03-21T08:25:45.944Z,16.79
2023-03-21T08:26:46.066Z,17.09
2023-03-21T08:27:46.362Z,17.31
2023-03-21T08:28:45.960Z,17.34
2023-03-21T08:29:45.949Z,17.36
2023-03-21T08:30:46.024Z,17.54
2023-03-21T08:31:45.969Z,17.55
2023-03-21T08:32:46.363Z,17.27
2023-03-21T08:33:48.327Z,17.13
2023-03-21T08:34:45.981Z,16.99
2023-03-21T08:35:46.337Z,16.91
2023-03-21T08:36:46.089Z,16.88
2023-03-21T08:37:46.411Z,16.83
2023-03-21T08:38:45.979Z,16.8
2023-03-21T08:39:46.439Z,16.69
2023-03-21T08:40:45.950Z,16.67
2023-03-21T08:41:46.048Z,16.76
2023-03-21T08:42:46.382Z,16.96
2023-03-21T08:43:45.950Z,17.08
2023-03-21T08:44:48.336Z,17.18
2023-03-21T08:45:45.971Z,17.33
2023-03-21T08:46:46.023Z,17.51
2023-03-21T08:47:46.422Z,17.74
2023-03-21T08:48:46.374Z,17.51
2023-03-21T08:49:46.063Z,17.41
2023-03-21T08:50:45.951Z,17.52
2023-03-21T08:51:45.950Z,17.37
2023-03-21T08:52:46.371Z,17.12
2023-03-21T08:53:46.098Z,16.89
2023-03-21T08:54:46.388Z,16.79
2023-03-21T08:55:48.276Z,16.74
2023-03-21T08:56:45.951Z,16.73
2023-03-21T08:57:46.388Z,16.68
2023-03-21T08:58:45.969Z,16.55
2023-03-21T08:59:46.038Z,16.38
2023-03-21T09:00:45.967Z,16.1
2023-03-21T09:01:46.012Z,15.9
2023-03-21T09:02:46.370Z,15.96
2023-03-21T09:03:45.965Z,15.89
2023-03-21T09:04:45.996Z,15.87
2023-03-21T09:05:45.969Z,15.94
2023-03-21T09:06:48.312Z,15.89
2023-03-21T09:07:46.390Z,15.84
2023-03-21T09:08:46.001Z,15.87
2023-03-21T09:09:50.895Z,16
2023-03-21T09:10:45.959Z,16.24
2023-03-21T09:11:46.068Z,16.39
2023-03-21T09:12:46.375Z,16.41
2023-03-21T09:13:45.962Z,16.54
2023-03-21T09:14:45.989Z,16.76
2023-03-21T09:15:46.075Z,16.86
2023-03-21T09:16:45.957Z,16.77
2023-03-21T09:17:50.776Z,16.68
2023-03-21T09:18:45.936Z,16.65
2023-03-21T09:19:45.962Z,16.59
2023-03-21T09:20:45.974Z,16.49
2023-03-21T09:21:45.957Z,16.4
2023-03-21T09:22:46.397Z,16.33
2023-03-21T09:23:45.975Z,16.27
2023-03-21T09:24:46.364Z,16.24
2023-03-21T09:25:45.933Z,16.29
2023-03-21T09:26:45.944Z,16.41
2023-03-21T09:27:46.373Z,16.67
2023-03-21T09:28:48.295Z,16.91
2023-03-21T09:29:45.987Z,16.83
2023-03-21T09:30:45.967Z,16.82
2023-03-21T09:31:46.025Z,16.85
2023-03-21T09:32:46.370Z,16.99
2023-03-21T09:33:45.952Z,16.99
2023-03-21T09:34:45.964Z,16.97
2023-03-21T09:35:46.054Z,17.06
2023-03-21T09:36:46.077Z,17.01
2023-03-21T09:37:46.397Z,16.94
2023-03-21T09:38:45.975Z,16.92
2023-03-21T09:39:50.779Z,16.82
2023-03-21T09:40:45.995Z,16.74
2023-03-21T09:41:45.944Z,16.7
2023-03-21T09:42:46.358Z,16.7
2023-03-21T09:43:45.966Z,16.61
2023-03-21T09:44:46.089Z,16.54
2023-03-21T09:45:45.968Z,16.44
2023-03-21T09:46:46.153Z,16.32
2023-03-21T09:47:46.387Z,16.42
2023-03-21T09:48:54.452Z,16.59
2023-03-21T09:49:45.943Z,16.61
2023-03-21T09:50:48.329Z,16.48
2023-03-21T09:51:46.128Z,16.28
2023-03-21T09:52:46.363Z,16.29
2023-03-21T09:53:45.971Z,16.32
2023-03-21T09:54:46.378Z,16.39
2023-03-21T09:55:45.972Z,16.55
2023-03-21T09:56:45.992Z,16.62
2023-03-21T09:57:46.352Z,16.78
2023-03-21T09:58:45.952Z,16.9
2023-03-21T09:59:45.950Z,16.85
2023-03-21T10:00:46.062Z,16.89
2023-03-21T10:01:48.308Z,17.02
2023-03-21T10:02:46.330Z,17.07
2023-03-21T10:03:45.965Z,17.16
2023-03-21T10:04:45.991Z,17.21
2023-03-21T10:05:45.984Z,17.18
2023-03-21T10:06:45.960Z,17.23
2023-03-21T10:07:46.376Z,17.27
2023-03-21T10:08:45.977Z,17.42
2023-03-21T10:09:46.366Z,17.72
2023-03-21T10:10:46.099Z,17.84
2023-03-21T10:11:45.956Z,17.83
2023-03-21T10:12:50.841Z,17.71
2023-03-21T10:13:46.098Z,17.61
2023-03-21T10:14:46.265Z,17.56
2023-03-21T10:15:45.934Z,17.5
2023-03-21T10:16:45.985Z,17.44
2023-03-21T10:17:46.370Z,17.41
2023-03-21T10:18:45.966Z,17.32
2023-03-21T10:19:45.959Z,17.49
2023-03-21T10:20:45.946Z,17.7
2023-03-21T10:21:59.659Z,17.68
2023-03-21T10:22:46.381Z,17.7
2023-03-21T10:23:48.275Z,17.78
2023-03-21T10:24:46.348Z,17.92
2023-03-21T10:25:46.076Z,18.01
2023-03-21T10:26:45.969Z,18.19
2023-03-21T10:27:46.385Z,18.23
2023-03-21T10:28:52.840Z,18.25
2023-03-21T10:29:45.962Z,18.16
2023-03-21T10:30:45.972Z,18.23
2023-03-21T10:31:46.040Z,18.22
2023-03-21T10:32:46.396Z,18.17
2023-03-21T10:33:45.996Z,18.15
2023-03-21T10:34:48.355Z,18.22
2023-03-21T10:35:46.057Z,18.31
2023-03-21T10:36:45.949Z,18.32
2023-03-21T10:37:46.357Z,18.33
2023-03-21T10:38:45.958Z,18.28
2023-03-21T10:39:46.377Z,18.24
2023-03-21T10:40:45.962Z,18.22
2023-03-21T10:41:45.976Z,18.02
2023-03-21T10:42:46.346Z,17.89
2023-03-21T10:43:45.967Z,17.85
2023-03-21T10:44:45.942Z,17.97
2023-03-21T10:45:48.437Z,18.01
2023-03-21T10:46:46.100Z,18
2023-03-21T10:47:46.545Z,17.87
2023-03-21T10:48:46.141Z,17.71
2023-03-21T10:50:06.173Z,17.62
2023-03-21T10:50:46.147Z,17.55
2023-03-21T10:51:46.305Z,17.39
2023-03-21T10:52:46.379Z,17.18
2023-03-21T10:53:45.954Z,17.02
2023-03-21T10:54:46.368Z,16.9
2023-03-21T10:55:45.949Z,16.9
2023-03-21T10:56:48.391Z,16.82
2023-03-21T10:57:46.377Z,16.82
2023-03-21T10:58:45.968Z,16.81
2023-03-21T10:59:46.090Z,16.8
2023-03-21T11:00:46.014Z,16.77
2023-03-21T11:01:45.993Z,16.69
2023-03-21T11:02:46.394Z,16.54
2023-03-21T11:03:45.941Z,16.19
2023-03-21T11:04:46.028Z,15.99
2023-03-21T11:05:45.940Z,15.98
2023-03-21T11:06:45.948Z,15.95
2023-03-21T11:07:50.786Z,16
2023-03-21T11:08:45.963Z,16.03
2023-03-21T11:09:46.340Z,15.95
2023-03-21T11:10:46.095Z,15.84
2023-03-21T11:11:45.948Z,15.79
2023-03-21T11:12:46.354Z,15.77
2023-03-21T11:13:45.962Z,15.69
2023-03-21T11:14:45.946Z,15.57
2023-03-21T11:15:45.950Z,15.43
2023-03-21T11:16:46.094Z,15.35
2023-03-21T11:17:46.399Z,15.32
2023-03-21T11:18:48.321Z,15.32
2023-03-21T11:19:45.955Z,15.32
2023-03-21T11:20:45.974Z,15.27
2023-03-21T11:21:46.037Z,15.19
2023-03-21T11:22:46.386Z,15.09
2023-03-21T11:23:45.964Z,15.05
2023-03-21T11:24:46.373Z,15.03
2023-03-21T11:25:45.952Z,14.97
2023-03-21T11:26:45.952Z,14.94
2023-03-21T11:27:46.366Z,14.86
2023-03-21T11:28:45.949Z,14.84
2023-03-21T11:29:48.328Z,14.85
2023-03-21T11:30:46.029Z,14.83
2023-03-21T11:31:45.952Z,14.83
2023-03-21T11:32:46.350Z,14.86
2023-03-21T11:33:45.983Z,14.98
2023-03-21T11:34:45.980Z,15.06
2023-03-21T11:35:45.990Z,15.18
2023-03-21T11:36:45.967Z,15.28
2023-03-21T11:37:46.524Z,15.39
2023-03-21T11:38:45.965Z,15.38
2023-03-21T11:39:46.355Z,15.37
2023-03-21T11:40:48.322Z,15.33
2023-03-21T11:41:45.935Z,15.31
2023-03-21T11:42:46.364Z,15.31
2023-03-21T11:43:45.945Z,15.29
2023-03-21T11:44:45.968Z,15.32
2023-03-21T11:45:45.990Z,15.39
2023-03-21T11:46:45.968Z,15.45
2023-03-21T11:47:46.474Z,15.42
2023-03-21T11:48:45.995Z,15.42
2023-03-21T11:49:47.082Z,15.46
2023-03-21T11:50:45.962Z,15.48
2023-03-21T11:51:48.341Z,15.47
2023-03-21T11:52:46.377Z,15.33
2023-03-21T11:53:45.972Z,15.32
2023-03-21T11:54:46.369Z,15.24
2023-03-21T11:55:46.113Z,15.16
2023-03-21T11:56:45.967Z,15.13
2023-03-21T11:57:46.354Z,15
2023-03-21T11:58:45.998Z,14.8
2023-03-21T11:59:45.953Z,14.65
2023-03-21T12:00:45.965Z,14.5
2023-03-21T12:01:45.973Z,14.42
2023-03-21T12:02:50.841Z,14.34
2023-03-21T12:03:48.484Z,14.19
2023-03-21T12:04:46.150Z,14.24
2023-03-21T12:05:45.977Z,14.4
2023-03-21T12:06:45.935Z,14.39
2023-03-21T12:07:46.364Z,14.29
2023-03-21T12:08:45.971Z,14.21
2023-03-21T12:09:46.370Z,14.29
2023-03-21T12:10:45.965Z,14.31
2023-03-21T12:11:46.103Z,14.3
2023-03-21T12:12:46.359Z,14.37
2023-03-21T12:13:48.281Z,14.48
2023-03-21T12:14:45.942Z,14.54
2023-03-21T12:15:45.997Z,14.62
2023-03-21T12:16:45.936Z,14.63
2023-03-21T12:17:46.365Z,14.68
2023-03-21T12:18:45.937Z,14.69
2023-03-21T12:19:45.996Z,14.86
2023-03-21T12:20:45.988Z,14.98
2023-03-21T12:21:45.964Z,15.04
2023-03-21T12:22:46.370Z,15.15
2023-03-21T12:23:45.965Z,15.19
2023-03-21T12:24:50.854Z,15.27
2023-03-21T12:25:45.974Z,15.28
2023-03-21T12:26:45.963Z,15.29
2023-03-21T12:27:46.360Z,15.34
2023-03-21T12:28:45.963Z,15.52
2023-03-21T12:29:45.971Z,15.68
2023-03-21T12:30:45.949Z,15.93
2023-03-21T12:31:46.063Z,16.23
2023-03-21T12:32:46.376Z,16.53
2023-03-21T12:33:45.961Z,16.79
2023-03-21T12:34:46.073Z,16.96
2023-03-21T12:35:48.429Z,17.04
2023-03-21T12:36:46.026Z,17.15
2023-03-21T12:37:46.362Z,17.19
2023-03-21T12:38:45.997Z,17.25
2023-03-21T12:39:46.386Z,17.34
2023-03-21T12:40:45.977Z,17.4
2023-03-21T12:41:46.001Z,17.36
2023-03-21T12:42:46.352Z,17.35
2023-03-21T12:43:46.028Z,17.37
2023-03-21T12:44:45.937Z,17.29
2023-03-21T12:45:47.300Z,17.26
2023-03-21T12:46:48.428Z,17.22
2023-03-21T12:47:46.480Z,17.03
2023-03-21T12:48:46.170Z,16.71
2023-03-21T12:49:45.953Z,16.51
2023-03-21T12:50:46.028Z,16.38
2023-03-21T12:51:46.035Z,16.2
2023-03-21T12:52:46.568Z,16.06
2023-03-21T12:53:45.965Z,15.94
2023-03-21T12:54:46.373Z,15.95
2023-03-21T12:55:45.975Z,15.92
2023-03-21T12:56:45.959Z,15.91
2023-03-21T12:57:57.149Z,15.9
2023-03-21T12:58:45.958Z,15.83
2023-03-21T12:59:45.956Z,15.73
2023-03-21T13:00:46.138Z,15.71
2023-03-21T13:01:45.940Z,15.63
2023-03-21T13:02:46.358Z,15.64
2023-03-21T13:03:46.018Z,15.64
2023-03-21T13:04:46.083Z,15.57
2023-03-21T13:05:46.126Z,15.52
2023-03-21T13:06:45.954Z,15.4
2023-03-21T13:07:46.355Z,15.18
2023-03-21T13:08:48.307Z,15.06